sensor_id;sensor_type;location;lat;lon;timestamp;pressure;altitude;pressure_sealevel;temperature;humidity
59951;BME280;45812;53.540;9.774;2022-12-18T00:01:20;102968.28;;;-5.47;100.00
59951;BME280;45812;53.540;9.774;2022-12-18T00:03:46;102967.25;;;-5.19;99.55
59951;BME280;45812;53.540;9.774;2022-12-18T00:06:11;102967.19;;;-5.08;98.53
59951;BME280;45812;53.540;9.774;2022-12-18T00:08:37;102973.22;;;-5.05;98.90
59951;BME280;45812;53.540;9.774;2022-12-18T00:11:07;102954.19;;;-5.05;99.04
59951;BME280;45812;53.540;9.774;2022-12-18T00:13:33;102949.94;;;-5.15;98.86
59951;BME280;45812;53.540;9.774;2022-12-18T00:16:06;102969.28;;;-5.76;100.00
59951;BME280;45812;53.540;9.774;2022-12-18T00:18:32;102974.47;;;-5.88;100.00
59951;BME280;45812;53.540;9.774;2022-12-18T00:21:02;102982.31;;;-5.97;100.00
59951;BME280;45812;53.540;9.774;2022-12-18T00:23:29;102984.03;;;-6.01;100.00
59951;BME280;45812;53.540;9.774;2022-12-18T00:25:54;102988.38;;;-6.00;100.00
59951;BME280;45812;53.540;9.774;2022-12-18T00:28:20;103003.94;;;-6.03;100.00
59951;BME280;45812;53.540;9.774;2022-12-18T00:30:45;103004.78;;;-5.98;100.00
59951;BME280;45812;53.540;9.774;2022-12-18T00:33:10;103003.06;;;-5.91;100.00
59951;BME280;45812;53.540;9.774;2022-12-18T00:35:35;102996.13;;;-5.91;100.00
59951;BME280;45812;53.540;9.774;2022-12-18T00:38:01;102997.81;;;-5.84;100.00
59951;BME280;45812;53.540;9.774;2022-12-18T00:40:26;102983.06;;;-5.79;100.00
59951;BME280;45812;53.540;9.774;2022-12-18T00:42:52;102982.25;;;-5.84;100.00
59951;BME280;45812;53.540;9.774;2022-12-18T00:45:27;102983.13;;;-5.86;100.00
59951;BME280;45812;53.540;9.774;2022-12-18T00:47:53;102986.59;;;-5.89;100.00
59951;BME280;45812;53.540;9.774;2022-12-18T00:50:19;102987.47;;;-5.96;100.00
59951;BME280;45812;53.540;9.774;2022-12-18T00:52:44;102990.97;;;-6.00;100.00
59951;BME280;45812;53.540;9.774;2022-12-18T00:55:11;102991.84;;;-6.05;100.00
59951;BME280;45812;53.540;9.774;2022-12-18T00:57:36;103004.81;;;-6.08;100.00
59951;BME280;45812;53.540;9.774;2022-12-18T01:00:03;103010.00;;;-6.13;100.00
59951;BME280;45812;53.540;9.774;2022-12-18T01:02:28;103009.13;;;-6.17;100.00
59951;BME280;45812;53.540;9.774;2022-12-18T01:04:54;103005.69;;;-6.19;100.00
59951;BME280;45812;53.540;9.774;2022-12-18T01:07:19;103001.34;;;-6.18;100.00
59951;BME280;45812;53.540;9.774;2022-12-18T01:09:44;103000.47;;;-6.14;100.00
59951;BME280;45812;53.540;9.774;2022-12-18T01:12:09;102993.59;;;-6.20;100.00
59951;BME280;45812;53.540;9.774;2022-12-18T01:14:36;102995.31;;;-6.23;100.00
59951;BME280;45812;53.540;9.774;2022-12-18T01:17:02;102990.97;;;-6.15;100.00
59951;BME280;45812;53.540;9.774;2022-12-18T01:19:28;102986.69;;;-6.10;100.00
59951;BME280;45812;53.540;9.774;2022-12-18T01:21:53;102985.81;;;-6.12;100.00
59951;BME280;45812;53.540;9.774;2022-12-18T01:24:19;102984.94;;;-6.08;100.00
59951;BME280;45812;53.540;9.774;2022-12-18T01:26:44;102989.28;;;-6.13;100.00
59951;BME280;45812;53.540;9.774;2022-12-18T01:29:10;102989.25;;;-6.16;100.00
59951;BME280;45812;53.540;9.774;2022-12-18T01:31:35;102990.13;;;-6.13;100.00
59951;BME280;45812;53.540;9.774;2022-12-18T01:34:01;102989.25;;;-6.15;100.00
59951;BME280;45812;53.540;9.774;2022-12-18T01:36:30;102989.25;;;-6.18;100.00
59951;BME280;45812;53.540;9.774;2022-12-18T01:38:56;102991.88;;;-6.27;100.00
59951;BME280;45812;53.540;9.774;2022-12-18T01:41:26;103003.13;;;-6.28;100.00
59951;BME280;45812;53.540;9.774;2022-12-18T01:47:23;103011.75;;;-6.30;100.00
59951;BME280;45812;53.540;9.774;2022-12-18T01:49:50;103009.16;;;-6.38;100.00
59951;BME280;45812;53.540;9.774;2022-12-18T01:52:17;103008.28;;;-6.35;100.00
59951;BME280;45812;53.540;9.774;2022-12-18T01:54:43;103021.25;;;-6.26;100.00
59951;BME280;45812;53.540;9.774;2022-12-18T01:57:09;103021.25;;;-6.13;100.00
59951;BME280;45812;53.540;9.774;2022-12-18T01:59:35;103021.22;;;-6.17;100.00
59951;BME280;45812;53.540;9.774;2022-12-18T02:02:02;103026.41;;;-6.19;100.00
59951;BME280;45812;53.540;9.774;2022-12-18T02:04:28;103022.94;;;-6.18;100.00
59951;BME280;45812;53.540;9.774;2022-12-18T02:07:08;103027.28;;;-6.11;100.00
59951;BME280;45812;53.540;9.774;2022-12-18T02:09:41;103023.84;;;-6.23;100.00
59951;BME280;45812;53.540;9.774;2022-12-18T02:12:15;103022.97;;;-6.24;100.00
59951;BME280;45812;53.540;9.774;2022-12-18T02:14:47;103022.97;;;-6.27;100.00
59951;BME280;45812;53.540;9.774;2022-12-18T02:17:22;103028.16;;;-6.31;100.00
59951;BME280;45812;53.540;9.774;2022-12-18T02:23:06;103030.75;;;-6.34;100.00
59951;BME280;45812;53.540;9.774;2022-12-18T02:25:52;103037.66;;;-6.36;100.00
59951;BME280;45812;53.540;9.774;2022-12-18T02:28:24;103050.59;;;-6.38;100.00
59951;BME280;45812;53.540;9.774;2022-12-18T02:30:54;103046.31;;;-6.44;100.00
59951;BME280;45812;53.540;9.774;2022-12-18T02:33:21;103043.72;;;-6.50;100.00
59951;BME280;45812;53.540;9.774;2022-12-18T02:35:48;103033.31;;;-6.53;100.00
59951;BME280;45812;53.540;9.774;2022-12-18T02:38:14;103023.00;;;-6.47;100.00
59951;BME280;45812;53.540;9.774;2022-12-18T02:40:42;103030.72;;;-6.56;100.00
59951;BME280;45812;53.540;9.774;2022-12-18T02:43:09;103035.06;;;-6.64;100.00
59951;BME280;45812;53.540;9.774;2022-12-18T02:45:34;103036.75;;;-6.77;100.00
59951;BME280;45812;53.540;9.774;2022-12-18T02:48:00;103041.91;;;-5.88;100.00
59951;BME280;45812;53.540;9.774;2022-12-18T02:50:35;103036.66;;;-5.65;98.45
59951;BME280;45812;53.540;9.774;2022-12-18T02:53:24;103042.69;;;-5.60;97.44
59951;BME280;45812;53.540;9.774;2022-12-18T02:56:16;103039.25;;;-5.56;97.21
59951;BME280;45812;53.540;9.774;2022-12-18T03:01:43;103038.53;;;-6.45;100.00
59951;BME280;45812;53.540;9.774;2022-12-18T03:04:17;103031.59;;;-6.63;100.00
59951;BME280;45812;53.540;9.774;2022-12-18T03:06:49;103038.47;;;-6.71;100.00
59951;BME280;45812;53.540;9.774;2022-12-18T03:09:19;103043.66;;;-6.76;100.00
59951;BME280;45812;53.540;9.774;2022-12-18T03:11:53;103046.25;;;-6.80;100.00
59951;BME280;45812;53.540;9.774;2022-12-18T03:14:40;103050.56;;;-6.84;100.00
59951;BME280;45812;53.540;9.774;2022-12-18T03:17:10;103048.84;;;-6.79;100.00
59951;BME280;45812;53.540;9.774;2022-12-18T03:19:39;103045.38;;;-6.81;100.00
59951;BME280;45812;53.540;9.774;2022-12-18T03:22:07;103052.28;;;-6.87;100.00
59951;BME280;45812;53.540;9.774;2022-12-18T03:24:33;103060.94;;;-6.85;100.00
59951;BME280;45812;53.540;9.774;2022-12-18T03:27:06;103052.25;;;-7.01;100.00
59951;BME280;45812;53.540;9.774;2022-12-18T03:29:46;103054.78;;;-7.07;100.00
59951;BME280;45812;53.540;9.774;2022-12-18T03:32:23;103043.69;;;-6.18;100.00
59951;BME280;45812;53.540;9.774;2022-12-18T03:34:51;103041.09;;;-5.99;97.54
59951;BME280;45812;53.540;9.774;2022-12-18T03:37:20;103051.44;;;-5.96;96.99
59951;BME280;45812;53.540;9.774;2022-12-18T03:39:45;103055.75;;;-5.95;96.62
59951;BME280;45812;53.540;9.774;2022-12-18T03:44:52;103055.72;;;-5.86;96.52
59951;BME280;45812;53.540;9.774;2022-12-18T03:47:27;103057.44;;;-5.84;96.80
59951;BME280;45812;53.540;9.774;2022-12-18T03:50:07;103059.19;;;-5.84;95.92
59951;BME280;45812;53.540;9.774;2022-12-18T03:52:38;103051.41;;;-5.89;95.63
59951;BME280;45812;53.540;9.774;2022-12-18T03:55:09;103048.84;;;-5.90;95.43
59951;BME280;45812;53.540;9.774;2022-12-18T03:57:36;103052.34;;;-5.94;95.23
59951;BME280;45812;53.540;9.774;2022-12-18T04:00:07;103054.91;;;-5.99;95.09
59951;BME280;45812;53.540;9.774;2022-12-18T04:02:34;103047.16;;;-6.03;94.66
59951;BME280;45812;53.540;9.774;2022-12-18T04:05:03;103049.75;;;-6.08;93.99
59951;BME280;45812;53.540;9.774;2022-12-18T04:07:30;103048.00;;;-6.14;94.70
59951;BME280;45812;53.540;9.774;2022-12-18T04:09:56;103041.09;;;-6.18;94.52
59951;BME280;45812;53.540;9.774;2022-12-18T04:12:25;103038.53;;;-6.22;94.66
59951;BME280;45812;53.540;9.774;2022-12-18T04:14:51;103042.84;;;-6.29;93.57
59951;BME280;45812;53.540;9.774;2022-12-18T04:17:16;103051.47;;;-6.33;93.38
59951;BME280;45812;53.540;9.774;2022-12-18T04:19:41;103051.47;;;-6.37;92.49
59951;BME280;45812;53.540;9.774;2022-12-18T04:22:09;103045.44;;;-6.43;92.92
59951;BME280;45812;53.540;9.774;2022-12-18T04:24:34;103053.22;;;-6.46;92.63
59951;BME280;45812;53.540;9.774;2022-12-18T04:27:00;103047.16;;;-6.49;92.17
59951;BME280;45812;53.540;9.774;2022-12-18T04:29:25;103047.13;;;-6.52;91.85
59951;BME280;45812;53.540;9.774;2022-12-18T04:31:50;103041.97;;;-6.55;92.48
59951;BME280;45812;53.540;9.774;2022-12-18T04:34:15;103047.16;;;-6.55;93.50
59951;BME280;45812;53.540;9.774;2022-12-18T04:36:40;103037.66;;;-6.59;93.41
59951;BME280;45812;53.540;9.774;2022-12-18T04:39:06;103045.41;;;-6.61;93.54
59951;BME280;45812;53.540;9.774;2022-12-18T04:41:31;103046.28;;;-6.63;93.92
59951;BME280;45812;53.540;9.774;2022-12-18T04:43:56;103033.34;;;-6.66;93.45
59951;BME280;45812;53.540;9.774;2022-12-18T04:46:21;103040.25;;;-6.68;94.72
59951;BME280;45812;53.540;9.774;2022-12-18T04:48:47;103049.72;;;-6.71;94.15
59951;BME280;45812;53.540;9.774;2022-12-18T04:51:12;103036.75;;;-6.80;92.80
59951;BME280;45812;53.540;9.774;2022-12-18T04:53:37;103029.00;;;-6.84;93.06
59951;BME280;45812;53.540;9.774;2022-12-18T04:56:08;103031.59;;;-6.86;92.22
59951;BME280;45812;53.540;9.774;2022-12-18T04:58:35;103038.50;;;-6.85;93.22
59951;BME280;45812;53.540;9.774;2022-12-18T05:01:01;103035.91;;;-6.82;92.71
59951;BME280;45812;53.540;9.774;2022-12-18T05:03:26;103043.66;;;-6.85;92.67
59951;BME280;45812;53.540;9.774;2022-12-18T05:05:54;103049.72;;;-6.84;93.11
59951;BME280;45812;53.540;9.774;2022-12-18T05:08:19;103054.03;;;-6.82;94.23
59951;BME280;45812;53.540;9.774;2022-12-18T05:10:44;103070.41;;;-6.78;94.47
59951;BME280;45812;53.540;9.774;2022-12-18T05:13:10;103079.06;;;-6.72;94.62
59951;BME280;45812;53.540;9.774;2022-12-18T05:15:35;103073.88;;;-6.70;94.44
59951;BME280;45812;53.540;9.774;2022-12-18T05:18:01;103071.28;;;-6.72;94.08
59951;BME280;45812;53.540;9.774;2022-12-18T05:20:28;103073.00;;;-6.77;94.05
59951;BME280;45812;53.540;9.774;2022-12-18T05:22:53;103077.31;;;-6.80;93.50
59951;BME280;45812;53.540;9.774;2022-12-18T05:25:20;103075.59;;;-6.83;94.48
59951;BME280;45812;53.540;9.774;2022-12-18T05:27:45;103078.19;;;-6.80;94.65
59951;BME280;45812;53.540;9.774;2022-12-18T05:30:11;103083.38;;;-6.80;95.65
59951;BME280;45812;53.540;9.774;2022-12-18T05:32:37;103080.78;;;-6.75;95.53
59951;BME280;45812;53.540;9.774;2022-12-18T05:35:04;103091.16;;;-6.72;95.66
59951;BME280;45812;53.540;9.774;2022-12-18T05:37:29;103084.25;;;-6.72;95.80
59951;BME280;45812;53.540;9.774;2022-12-18T05:39:55;103099.81;;;-6.68;96.04
59951;BME280;45812;53.540;9.774;2022-12-18T05:42:20;103096.31;;;-6.72;95.62
59951;BME280;45812;53.540;9.774;2022-12-18T05:44:45;103095.47;;;-6.73;96.65
59951;BME280;45812;53.540;9.774;2022-12-18T05:47:10;103095.47;;;-6.71;97.03
59951;BME280;45812;53.540;9.774;2022-12-18T05:49:36;103103.25;;;-6.66;97.02
59951;BME280;45812;53.540;9.774;2022-12-18T05:52:01;103105.00;;;-6.65;97.29
59951;BME280;45812;53.540;9.774;2022-12-18T05:54:27;103109.31;;;-6.67;96.77
59951;BME280;45812;53.540;9.774;2022-12-18T05:56:53;103103.22;;;-6.76;96.56
59951;BME280;45812;53.540;9.774;2022-12-18T05:59:19;103101.50;;;-6.83;96.65
59951;BME280;45812;53.540;9.774;2022-12-18T06:01:44;103090.25;;;-6.88;95.39
59951;BME280;45812;53.540;9.774;2022-12-18T06:04:09;103091.94;;;-6.96;94.38
59951;BME280;45812;53.540;9.774;2022-12-18T06:06:34;103091.06;;;-7.03;94.19
59951;BME280;45812;53.540;9.774;2022-12-18T06:08:59;103098.78;;;-7.07;93.82
59951;BME280;45812;53.540;9.774;2022-12-18T06:11:26;103097.06;;;-7.11;92.92
59951;BME280;45812;53.540;9.774;2022-12-18T06:13:53;103103.94;;;-7.15;92.66
59951;BME280;45812;53.540;9.774;2022-12-18T06:16:19;103111.72;;;-7.13;93.46
59951;BME280;45812;53.540;9.774;2022-12-18T06:18:44;103106.53;;;-7.13;93.58
59951;BME280;45812;53.540;9.774;2022-12-18T06:21:09;103103.09;;;-7.14;93.71
59951;BME280;45812;53.540;9.774;2022-12-18T06:23:35;103100.50;;;-7.15;93.25
59951;BME280;45812;53.540;9.774;2022-12-18T06:26:11;103105.66;;;-7.18;92.52
59951;BME280;45812;53.540;9.774;2022-12-18T06:28:37;103103.03;;;-7.26;92.66
59951;BME280;45812;53.540;9.774;2022-12-18T06:31:04;103110.78;;;-7.26;92.05
59951;BME280;45812;53.540;9.774;2022-12-18T06:33:29;103111.66;;;-7.25;92.40
59951;BME280;45812;53.540;9.774;2022-12-18T06:36:00;103109.09;;;-7.24;92.18
59951;BME280;45812;53.540;9.774;2022-12-18T06:38:26;103115.16;;;-7.20;92.92
59951;BME280;45812;53.540;9.774;2022-12-18T06:40:51;103117.75;;;-7.14;93.62
59951;BME280;45812;53.540;9.774;2022-12-18T06:43:16;103116.03;;;-7.12;93.80
59951;BME280;45812;53.540;9.774;2022-12-18T06:45:42;103115.19;;;-7.13;93.57
59951;BME280;45812;53.540;9.774;2022-12-18T06:48:07;103111.72;;;-7.12;93.93
59951;BME280;45812;53.540;9.774;2022-12-18T06:50:32;103107.41;;;-7.14;93.51
59951;BME280;45812;53.540;9.774;2022-12-18T06:52:57;103108.28;;;-7.12;94.27
59951;BME280;45812;53.540;9.774;2022-12-18T06:55:23;103104.81;;;-7.10;94.59
59951;BME280;45812;53.540;9.774;2022-12-18T06:57:48;103116.09;;;-7.06;94.88
59951;BME280;45812;53.540;9.774;2022-12-18T07:00:14;103118.66;;;-7.06;95.46
59951;BME280;45812;53.540;9.774;2022-12-18T07:02:39;103122.13;;;-7.03;95.39
59951;BME280;45812;53.540;9.774;2022-12-18T07:05:05;103124.72;;;-6.98;96.08
59951;BME280;45812;53.540;9.774;2022-12-18T07:07:31;103123.00;;;-6.97;95.56
59951;BME280;45812;53.540;9.774;2022-12-18T07:09:56;103125.59;;;-6.99;94.23
59951;BME280;45812;53.540;9.774;2022-12-18T07:12:21;103121.28;;;-7.02;93.58
59951;BME280;45812;53.540;9.774;2022-12-18T07:14:46;103131.63;;;-7.03;92.91
59951;BME280;45812;53.540;9.774;2022-12-18T07:17:12;103135.94;;;-7.04;93.11
59951;BME280;45812;53.540;9.774;2022-12-18T07:19:37;103133.34;;;-7.02;93.17
59951;BME280;45812;53.540;9.774;2022-12-18T07:22:02;103131.63;;;-6.97;93.68
59951;BME280;45812;53.540;9.774;2022-12-18T07:24:28;103135.09;;;-6.93;93.40
59951;BME280;45812;53.540;9.774;2022-12-18T07:26:53;103132.50;;;-6.92;93.62
59951;BME280;45812;53.540;9.774;2022-12-18T07:29:18;103136.84;;;-6.89;93.75
59951;BME280;45812;53.540;9.774;2022-12-18T07:31:44;103130.81;;;-6.87;93.69
59951;BME280;45812;53.540;9.774;2022-12-18T07:34:10;103142.91;;;-6.83;93.84
59951;BME280;45812;53.540;9.774;2022-12-18T07:36:36;103143.78;;;-6.79;93.63
59951;BME280;45812;53.540;9.774;2022-12-18T07:39:01;103151.56;;;-6.78;93.63
59951;BME280;45812;53.540;9.774;2022-12-18T07:41:27;103152.44;;;-6.74;93.01
59951;BME280;45812;53.540;9.774;2022-12-18T07:43:52;103148.97;;;-6.72;92.22
59951;BME280;45812;53.540;9.774;2022-12-18T07:46:18;103159.38;;;-6.65;92.79
59951;BME280;45812;53.540;9.774;2022-12-18T07:48:43;103155.94;;;-6.58;92.83
59951;BME280;45812;53.540;9.774;2022-12-18T07:51:09;103147.34;;;-6.48;92.74
59951;BME280;45812;53.540;9.774;2022-12-18T07:53:35;103144.75;;;-6.42;93.00
59951;BME280;45812;53.540;9.774;2022-12-18T07:56:06;103149.06;;;-6.38;92.25
59951;BME280;45812;53.540;9.774;2022-12-18T07:58:33;103160.34;;;-6.31;92.58
59951;BME280;45812;53.540;9.774;2022-12-18T08:01:07;103145.66;;;-6.23;93.40
59951;BME280;45812;53.540;9.774;2022-12-18T08:03:33;103137.03;;;-6.12;93.24
59951;BME280;45812;53.540;9.774;2022-12-18T08:06:03;103144.78;;;-6.01;93.05
59951;BME280;45812;53.540;9.774;2022-12-18T08:08:29;103142.19;;;-5.89;93.50
59951;BME280;45812;53.540;9.774;2022-12-18T08:10:55;103142.16;;;-5.78;92.81
59951;BME280;45812;53.540;9.774;2022-12-18T08:13:20;103135.25;;;-5.67;93.66
59951;BME280;45812;53.540;9.774;2022-12-18T08:15:46;103130.03;;;-5.55;92.65
59951;BME280;45812;53.540;9.774;2022-12-18T08:18:11;103126.53;;;-5.44;92.49
59951;BME280;45812;53.540;9.774;2022-12-18T08:20:36;103132.59;;;-5.33;92.65
59951;BME280;45812;53.540;9.774;2022-12-18T08:23:02;103128.22;;;-5.19;91.37
59951;BME280;45812;53.540;9.774;2022-12-18T08:25:27;103122.22;;;-5.36;91.98
59951;BME280;45812;53.540;9.774;2022-12-18T08:27:52;103130.88;;;-5.46;94.78
59951;BME280;45812;53.540;9.774;2022-12-18T08:30:18;103138.47;;;-4.82;95.27
59951;BME280;45812;53.540;9.774;2022-12-18T08:32:43;103126.56;;;-3.88;92.96
59951;BME280;45812;53.540;9.774;2022-12-18T08:35:08;103131.56;;;-2.87;89.09
59951;BME280;45812;53.540;9.774;2022-12-18T08:37:34;103123.09;;;-1.88;83.59
59951;BME280;45812;53.540;9.774;2022-12-18T08:39:59;103115.53;;;-1.07;78.26
59951;BME280;45812;53.540;9.774;2022-12-18T08:42:24;103119.69;;;-0.58;74.06
59951;BME280;45812;53.540;9.774;2022-12-18T08:45:09;103112.25;;;-0.38;71.77
59951;BME280;45812;53.540;9.774;2022-12-18T08:47:34;103133.75;;;-0.63;71.56
59951;BME280;45812;53.540;9.774;2022-12-18T08:49:59;103133.44;;;-0.89;72.89
59951;BME280;45812;53.540;9.774;2022-12-18T08:52:24;103137.06;;;-0.96;73.60
59951;BME280;45812;53.540;9.774;2022-12-18T08:54:49;103129.63;;;-1.16;73.12
59951;BME280;45812;53.540;9.774;2022-12-18T08:57:15;103130.03;;;-1.37;73.48
59951;BME280;45812;53.540;9.774;2022-12-18T08:59:41;103133.22;;;-1.66;74.81
59951;BME280;45812;53.540;9.774;2022-12-18T09:02:09;103139.72;;;-1.92;76.86
59951;BME280;45812;53.540;9.774;2022-12-18T09:04:34;103144.09;;;-1.94;77.23
59951;BME280;45812;53.540;9.774;2022-12-18T09:07:00;103149.31;;;-1.94;77.36
59951;BME280;45812;53.540;9.774;2022-12-18T09:09:25;103136.22;;;-1.91;77.75
59951;BME280;45812;53.540;9.774;2022-12-18T09:11:50;103124.84;;;-1.39;75.22
59951;BME280;45812;53.540;9.774;2022-12-18T09:14:15;103126.06;;;-1.10;73.71
59951;BME280;45812;53.540;9.774;2022-12-18T09:16:41;103121.75;;;-1.59;75.90
59951;BME280;45812;53.540;9.774;2022-12-18T09:19:06;103120.53;;;-1.40;76.42
59951;BME280;45812;53.540;9.774;2022-12-18T09:21:33;103117.47;;;-1.17;76.20
59951;BME280;45812;53.540;9.774;2022-12-18T09:23:59;103127.34;;;-0.49;74.20
59951;BME280;45812;53.540;9.774;2022-12-18T09:26:26;103129.44;;;0.76;69.77
59951;BME280;45812;53.540;9.774;2022-12-18T09:28:51;103131.91;;;1.97;63.80
59951;BME280;45812;53.540;9.774;2022-12-18T09:31:20;103125.00;;;3.41;57.28
59951;BME280;45812;53.540;9.774;2022-12-18T09:33:46;103121.94;;;4.76;53.41
59951;BME280;45812;53.540;9.774;2022-12-18T09:36:13;103117.50;;;5.35;50.98
59951;BME280;45812;53.540;9.774;2022-12-18T09:38:39;103113.59;;;6.16;48.61
59951;BME280;45812;53.540;9.774;2022-12-18T09:41:17;103115.19;;;6.01;47.63
59951;BME280;45812;53.540;9.774;2022-12-18T09:43:58;103116.84;;;6.55;46.12
59951;BME280;45812;53.540;9.774;2022-12-18T09:46:38;103117.47;;;7.25;44.25
59951;BME280;45812;53.540;9.774;2022-12-18T09:49:11;103119.94;;;7.75;43.02
59951;BME280;45812;53.540;9.774;2022-12-18T09:51:44;103107.72;;;8.33;41.91
59951;BME280;45812;53.540;9.774;2022-12-18T09:54:12;103114.38;;;8.84;40.13
59951;BME280;45812;53.540;9.774;2022-12-18T09:56:41;103117.28;;;8.51;40.95
59951;BME280;45812;53.540;9.774;2022-12-18T09:59:18;103114.78;;;8.18;41.64
59951;BME280;45812;53.540;9.774;2022-12-18T10:01:44;103119.53;;;7.83;42.31
59951;BME280;45812;53.540;9.774;2022-12-18T10:04:09;103119.72;;;7.33;43.23
59951;BME280;45812;53.540;9.774;2022-12-18T10:06:44;103126.56;;;6.88;44.99
59951;BME280;45812;53.540;9.774;2022-12-18T10:09:24;103115.00;;;6.73;45.05
59951;BME280;45812;53.540;9.774;2022-12-18T10:17:51;103127.34;;;5.50;46.90
59951;BME280;45812;53.540;9.774;2022-12-18T10:20:37;103134.19;;;5.16;48.10
59951;BME280;45812;53.540;9.774;2022-12-18T10:28:13;103124.59;;;6.06;47.70
59951;BME280;45812;53.540;9.774;2022-12-18T10:30:40;103125.38;;;6.08;46.96
59951;BME280;45812;53.540;9.774;2022-12-18T10:33:11;103130.06;;;6.21;47.47
59951;BME280;45812;53.540;9.774;2022-12-18T10:35:40;103134.06;;;7.28;46.00
59951;BME280;45812;53.540;9.774;2022-12-18T10:38:29;103122.13;;;7.99;43.51
59951;BME280;45812;53.540;9.774;2022-12-18T10:43:28;103133.31;;;6.43;44.76
59951;BME280;45812;53.540;9.774;2022-12-18T10:48:36;103121.06;;;6.75;43.73
59951;BME280;45812;53.540;9.774;2022-12-18T10:51:05;103104.44;;;6.56;43.66
59951;BME280;45812;53.540;9.774;2022-12-18T10:53:33;103104.16;;;5.74;45.25
59951;BME280;45812;53.540;9.774;2022-12-18T10:55:59;103106.06;;;5.34;46.18
59951;BME280;45812;53.540;9.774;2022-12-18T10:58:27;103106.59;;;5.42;46.55
59951;BME280;45812;53.540;9.774;2022-12-18T11:01:13;103103.59;;;5.67;45.43
59951;BME280;45812;53.540;9.774;2022-12-18T11:04:07;103117.41;;;5.55;45.82
59951;BME280;45812;53.540;9.774;2022-12-18T11:06:33;103121.25;;;4.92;46.68
59951;BME280;45812;53.540;9.774;2022-12-18T11:09:21;103108.88;;;4.73;47.37
59951;BME280;45812;53.540;9.774;2022-12-18T11:11:50;103099.78;;;4.99;46.88
59951;BME280;45812;53.540;9.774;2022-12-18T11:14:42;103095.38;;;4.61;46.89
59951;BME280;45812;53.540;9.774;2022-12-18T11:17:19;103095.59;;;4.95;46.46
59951;BME280;45812;53.540;9.774;2022-12-18T11:19:44;103093.53;;;5.57;44.80
59951;BME280;45812;53.540;9.774;2022-12-18T11:24:53;103087.28;;;5.59;47.04
59951;BME280;45812;53.540;9.774;2022-12-18T11:27:18;103076.91;;;5.55;46.41
59951;BME280;45812;53.540;9.774;2022-12-18T11:29:44;103083.69;;;5.05;47.10
59951;BME280;45812;53.540;9.774;2022-12-18T11:32:33;103087.31;;;4.84;48.58
59951;BME280;45812;53.540;9.774;2022-12-18T11:35:25;103082.13;;;4.62;48.78
59951;BME280;45812;53.540;9.774;2022-12-18T11:37:59;103082.97;;;4.63;49.86
59951;BME280;45812;53.540;9.774;2022-12-18T11:40:35;103077.69;;;5.21;48.47
59951;BME280;45812;53.540;9.774;2022-12-18T11:43:15;103077.69;;;5.57;47.61
59951;BME280;45812;53.540;9.774;2022-12-18T11:46:02;103075.88;;;5.76;46.97
59951;BME280;45812;53.540;9.774;2022-12-18T11:48:33;103078.84;;;5.87;46.46
59951;BME280;45812;53.540;9.774;2022-12-18T11:51:04;103072.50;;;5.91;46.29
59951;BME280;45812;53.540;9.774;2022-12-18T11:53:33;103059.75;;;5.99;46.34
59951;BME280;45812;53.540;9.774;2022-12-18T11:56:14;103046.75;;;6.12;45.80
59951;BME280;45812;53.540;9.774;2022-12-18T11:58:50;103040.22;;;6.19;45.07
59951;BME280;45812;53.540;9.774;2022-12-18T12:01:32;103049.97;;;6.19;45.42
59951;BME280;45812;53.540;9.774;2022-12-18T12:04:16;103042.56;;;6.08;45.64
59951;BME280;45812;53.540;9.774;2022-12-18T12:07:02;103029.59;;;6.03;45.45
59951;BME280;45812;53.540;9.774;2022-12-18T12:15:20;103050.72;;;4.95;47.34
59951;BME280;45812;53.540;9.774;2022-12-18T12:18:04;103035.59;;;4.41;48.45
59951;BME280;45812;53.540;9.774;2022-12-18T12:20:50;103033.56;;;4.27;49.01
59951;BME280;45812;53.540;9.774;2022-12-18T12:26:01;103009.78;;;3.88;50.29
59951;BME280;45812;53.540;9.774;2022-12-18T12:31:54;102986.56;;;3.77;51.56
59951;BME280;45812;53.540;9.774;2022-12-18T12:34:47;102983.84;;;3.79;51.17
59951;BME280;45812;53.540;9.774;2022-12-18T12:37:21;102970.63;;;3.80;52.15
59951;BME280;45812;53.540;9.774;2022-12-18T12:39:50;102966.94;;;4.23;51.61
59951;BME280;45812;53.540;9.774;2022-12-18T12:42:45;102972.06;;;4.47;50.65
59951;BME280;45812;53.540;9.774;2022-12-18T12:45:38;102969.78;;;4.58;50.51
59951;BME280;45812;53.540;9.774;2022-12-18T12:48:14;102979.91;;;4.67;50.89
59951;BME280;45812;53.540;9.774;2022-12-18T12:50:41;102961.72;;;4.61;50.05
59951;BME280;45812;53.540;9.774;2022-12-18T12:53:09;102955.38;;;4.46;50.48
59951;BME280;45812;53.540;9.774;2022-12-18T12:55:39;102966.16;;;4.21;50.68
59951;BME280;45812;53.540;9.774;2022-12-18T12:58:18;102970.69;;;3.99;51.52
59951;BME280;45812;53.540;9.774;2022-12-18T13:06:44;102974.31;;;3.97;51.56
59951;BME280;45812;53.540;9.774;2022-12-18T13:09:11;102963.31;;;4.26;51.17
59951;BME280;45812;53.540;9.774;2022-12-18T13:11:47;102965.31;;;4.21;51.73
59951;BME280;45812;53.540;9.774;2022-12-18T13:14:34;102967.41;;;3.94;51.36
59951;BME280;45812;53.540;9.774;2022-12-18T13:19:44;102949.75;;;3.33;52.53
59951;BME280;45812;53.540;9.774;2022-12-18T13:22:30;102948.31;;;3.04;53.86
59951;BME280;45812;53.540;9.774;2022-12-18T13:24:56;102946.63;;;3.03;54.38
59951;BME280;45812;53.540;9.774;2022-12-18T13:45:59;102958.66;;;1.69;59.50
59951;BME280;45812;53.540;9.774;2022-12-18T13:48:26;102953.78;;;1.32;60.10
59951;BME280;45812;53.540;9.774;2022-12-18T13:50:56;102958.00;;;0.52;63.49
59951;BME280;45812;53.540;9.774;2022-12-18T13:53:27;102953.59;;;0.24;66.00
59951;BME280;45812;53.540;9.774;2022-12-18T13:55:53;102944.38;;;0.41;66.03
59951;BME280;45812;53.540;9.774;2022-12-18T13:58:19;102945.34;;;0.38;65.67
59951;BME280;45812;53.540;9.774;2022-12-18T14:00:44;102951.75;;;-0.05;67.91
59951;BME280;45812;53.540;9.774;2022-12-18T14:03:22;102938.91;;;-0.12;68.63
59951;BME280;45812;53.540;9.774;2022-12-18T14:05:56;102947.50;;;-0.41;69.93
59951;BME280;45812;53.540;9.774;2022-12-18T14:08:23;102950.41;;;-0.18;68.69
59951;BME280;45812;53.540;9.774;2022-12-18T14:10:51;102949.88;;;-0.66;71.22